METAR Data
IDs: Format: Raw Decoded Include TAF

Data at: 0659 UTC 28 Sep 2022

KAEL 280655Z AUTO 00000KT 10SM CLR 01/01 A3042 RMK AO2
KAEL 280635Z AUTO 00000KT 10SM CLR 01/01 A3042 RMK AO2
KAEL 280615Z AUTO 00000KT 10SM CLR 02/01 A3042 RMK AO2
KAEL 280555Z AUTO 00000KT 10SM CLR 01/01 A3041 RMK AO2
KAEL 280535Z AUTO 00000KT 10SM CLR 02/02 A3041 RMK AO2
KAEL 280515Z AUTO 00000KT 10SM CLR 03/01 A3041 RMK AO2
KAEL 280455Z AUTO 00000KT 10SM CLR 02/02 A3040 RMK AO2
KAEL 280435Z AUTO 00000KT 10SM CLR 02/02 A3040 RMK AO2
KAEL 280415Z AUTO 00000KT 10SM CLR 03/02 A3039 RMK AO2
KAEL 280355Z AUTO 00000KT 10SM CLR 03/02 A3039 RMK AO2
KAEL 280335Z AUTO 00000KT 10SM CLR 03/02 A3038 RMK AO2
KAEL 280315Z AUTO 00000KT 10SM CLR 03/02 A3038 RMK AO2
KAEL 280255Z AUTO 00000KT 10SM CLR 04/02 A3037 RMK AO2
KAEL 280235Z AUTO 00000KT 10SM CLR 06/02 A3036 RMK AO2
KAEL 280215Z AUTO 03003KT 10SM CLR 06/01 A3035 RMK AO2
KAEL 280155Z AUTO 00000KT 10SM CLR 06/02 A3034 RMK AO2
KAEL 280135Z AUTO 00000KT 10SM CLR 07/01 A3033 RMK AO2
KAEL 280115Z AUTO 00000KT 10SM CLR 07/00 A3033 RMK AO2
KAEL 280055Z AUTO 02005KT 10SM CLR 08/00 A3031 RMK AO2
KAEL 280035Z AUTO 03005KT 10SM CLR 09/M01 A3031 RMK AO2
KAEL 280015Z AUTO 01005KT 10SM CLR 09/00 A3030 RMK AO2
KAEL 272355Z AUTO 01004KT 10SM CLR 11/M01 A3030 RMK AO2
KAEL 272335Z AUTO 01006KT 10SM CLR 13/M02 A3029 RMK AO2
KAEL 272315Z AUTO 01009G14KT 10SM CLR 14/M02 A3028 RMK AO2
KAEL 272255Z AUTO 01008G14KT 10SM CLR 14/M03 A3028 RMK AO2
KAEL 272235Z AUTO 35008G15KT 10SM CLR 15/M02 A3027 RMK AO2
KAEL 272215Z AUTO 36009KT 10SM CLR 16/M02 A3026 RMK AO2
KAEL 272155Z AUTO 36009G16KT 10SM CLR 16/M02 A3026 RMK AO2
KAEL 272135Z AUTO 35012G16KT 10SM CLR 16/M03 A3026 RMK AO2
KAEL 272115Z AUTO 01013G17KT 10SM CLR 16/M03 A3025 RMK AO2
KAEL 272055Z AUTO 35011G19KT 10SM CLR 16/M04 A3025 RMK AO2
KAEL 272035Z AUTO 36010G17KT 10SM CLR 16/M03 A3025 RMK AO2
KAEL 272015Z AUTO 34006G16KT 7SM CLR 16/M02 A3025 RMK AO2
KAEL 271955Z AUTO 35010G15KT 10SM CLR 16/M02 A3025 RMK AO2
KAEL 271935Z AUTO 01011G16KT 10SM CLR 16/M02 A3025 RMK AO2
KAEL 271915Z AUTO 01011G19KT 10SM CLR 16/M03 A3025 RMK AO2
KAEL 271855Z AUTO 36009G15KT 10SM CLR 15/M02 A3025 RMK AO2
KAEL 271835Z AUTO 35011G15KT 10SM CLR 15/M03 A3026 RMK AO2
KAEL 271815Z AUTO 36006KT 10SM CLR 15/00 A3025 RMK AO2
KAEL 271755Z AUTO 35006G14KT 10SM CLR 15/01 A3025 RMK AO2
KAEL 271735Z AUTO 33007KT 280V010 10SM CLR 15/02 A3025 RMK AO2
KAEL 271715Z AUTO 35010G14KT 10SM CLR 14/02 A3025 RMK AO2
KAEL 271655Z AUTO 34007KT 10SM CLR 14/03 A3025 RMK AO2
KAEL 271635Z AUTO 35008G14KT 10SM CLR 14/04 A3025 RMK AO2
KAEL 271615Z AUTO 01011G14KT 330V030 10SM CLR 13/04 A3024 RMK AO2
KAEL 271555Z AUTO 36008KT 10SM CLR 13/04 A3024 RMK AO2
KAEL 271535Z AUTO 36008KT 10SM CLR 12/04 A3024 RMK AO2
KAEL 271515Z AUTO 01011KT 10SM BKN070 12/03 A3023 RMK AO2
KAEL 271455Z AUTO 36006KT 10SM OVC080 11/04 A3022 RMK AO2
KAEL 271435Z AUTO 36007KT 10SM BKN080 11/04 A3022 RMK AO2
KAEL 271415Z AUTO 36004KT 10SM SCT080 10/04 A3021 RMK AO2
KAEL 271355Z AUTO 36003KT 10SM SCT080 10/05 A3020 RMK AO2
KAEL 271335Z AUTO 00000KT 10SM BKN080 09/06 A3019 RMK AO2
KAEL 271315Z AUTO 00000KT 10SM OVC080 07/06 A3019 RMK AO2